createdAt,value
2023-02-04T08:17:02.110Z,985.00
2023-02-04T08:29:02.577Z,985.56
2023-02-04T08:41:03.040Z,986.09
2023-02-04T08:53:03.478Z,986.29
2023-02-04T09:05:03.946Z,986.96
2023-02-04T09:17:04.391Z,987.25
2023-02-04T09:29:04.842Z,988.02
2023-02-04T09:41:05.334Z,988.02
2023-02-04T09:53:05.772Z,987.81
2023-02-04T10:05:06.615Z,987.95
2023-02-04T10:17:06.617Z,988.14
2023-02-04T10:29:09.545Z,988.51
2023-02-04T10:41:07.543Z,988.79
2023-02-04T10:53:07.990Z,988.59
2023-02-04T11:05:08.439Z,988.69
2023-02-04T11:17:08.920Z,988.75
2023-02-04T11:29:09.350Z,989.10
2023-02-04T11:41:09.787Z,989.34
2023-02-04T11:53:10.262Z,989.38
2023-02-04T12:05:10.715Z,989.82
2023-02-04T12:17:11.189Z,989.60
2023-02-04T12:29:11.634Z,989.35
2023-02-04T12:41:12.063Z,989.24
2023-02-04T12:53:12.555Z,989.13
2023-02-04T13:05:12.959Z,988.84
2023-02-04T13:17:13.430Z,989.33
2023-02-04T13:29:13.874Z,989.52
2023-02-04T13:41:14.357Z,989.22
2023-02-04T13:53:14.772Z,989.50
2023-02-04T14:05:15.216Z,989.68
2023-02-04T14:17:15.690Z,989.56
2023-02-04T14:29:16.201Z,990.36
2023-02-04T14:41:16.587Z,989.97
2023-02-04T14:53:17.047Z,989.97
2023-02-04T15:05:17.519Z,990.34
2023-02-04T15:17:17.986Z,990.49
2023-02-04T15:29:18.389Z,990.93
2023-02-04T15:41:18.877Z,990.82
2023-02-04T15:53:19.321Z,991.40
2023-02-04T16:05:19.806Z,991.47
2023-02-04T16:17:20.267Z,991.76
2023-02-04T16:29:20.653Z,992.18
2023-02-04T16:41:21.127Z,992.14
2023-02-04T16:53:21.596Z,992.39
2023-02-04T17:05:22.106Z,992.46
2023-02-04T17:17:22.477Z,992.54
2023-02-04T17:29:22.936Z,992.78
2023-02-04T17:41:23.406Z,992.91
2023-02-04T17:53:23.808Z,992.75
2023-02-04T18:05:24.295Z,992.99
2023-02-04T18:17:24.745Z,993.19
2023-02-04T18:29:25.195Z,993.08
2023-02-04T18:41:25.603Z,993.20
2023-02-04T18:53:26.056Z,993.36
2023-02-04T19:05:26.543Z,993.39
2023-02-04T19:17:27.039Z,993.46
2023-02-04T19:29:27.389Z,993.55
2023-02-04T19:41:27.852Z,993.51
2023-02-04T19:53:28.341Z,993.72
2023-02-04T20:05:28.774Z,993.76
2023-02-04T20:17:29.256Z,993.56
2023-02-04T20:29:29.716Z,993.64
2023-02-04T20:41:30.138Z,993.73
2023-02-04T20:53:30.637Z,993.68
2023-02-04T21:05:31.233Z,993.56
2023-02-04T21:17:31.468Z,993.54
2023-02-04T21:29:31.937Z,993.83
2023-02-04T21:41:32.434Z,994.03
2023-02-04T21:53:32.861Z,993.95
2023-02-04T22:05:33.697Z,994.10
2023-02-04T22:17:33.770Z,994.24
2023-02-04T22:29:34.234Z,994.53
2023-02-04T22:41:34.682Z,994.51
2023-02-04T22:53:35.085Z,994.40
2023-02-04T23:05:35.844Z,994.37
2023-02-04T23:17:36.017Z,994.49
2023-02-04T23:29:36.468Z,994.51
2023-02-04T23:41:36.941Z,994.46
2023-02-04T23:53:37.371Z,994.51
